createdAt,value
2018-08-06T00:00:29.113Z,56.09
2018-08-06T00:02:58.255Z,55.61
2018-08-06T00:05:27.353Z,55.66
2018-08-06T00:07:56.551Z,55.60
2018-08-06T00:10:26.623Z,56.17
2018-08-06T00:12:55.810Z,56.18
2018-08-06T00:15:24.936Z,57.20
2018-08-06T00:17:54.194Z,57.38
2018-08-06T00:20:23.297Z,56.62
2018-08-06T00:22:52.483Z,56.18
2018-08-06T00:25:21.563Z,56.42
2018-08-06T00:27:50.809Z,56.90
2018-08-06T00:30:21.135Z,58.04
2018-08-06T00:32:50.927Z,57.62
2018-08-06T00:35:20.253Z,58.75
2018-08-06T00:37:49.804Z,57.95
2018-08-06T00:40:20.407Z,57.46
2018-08-06T00:42:49.888Z,56.95
2018-08-06T00:45:20.387Z,57.19
2018-08-06T00:47:50.924Z,57.93
2018-08-06T00:50:20.036Z,58.57
2018-08-06T00:52:49.133Z,58.94
2018-08-06T00:55:19.343Z,58.82
2018-08-06T00:57:48.647Z,59.11
2018-08-06T01:00:18.883Z,59.22
2018-08-06T01:02:48.069Z,59.20
2018-08-06T01:05:17.605Z,58.85
2018-08-06T01:07:47.708Z,59.20
2018-08-06T01:10:18.004Z,58.84
2018-08-06T01:12:47.136Z,58.16
2018-08-06T01:15:17.391Z,57.79
2018-08-06T01:17:46.595Z,59.51
2018-08-06T01:20:16.135Z,59.08
2018-08-06T01:22:45.851Z,59.71
2018-08-06T01:25:15.449Z,60.10
2018-08-06T01:27:44.589Z,60.01
2018-08-06T01:30:14.671Z,59.83
2018-08-06T01:32:44.843Z,60.24
2018-08-06T01:35:13.968Z,60.66
2018-08-06T01:37:43.141Z,60.99
2018-08-06T01:40:14.738Z,61.17
2018-08-06T01:42:43.896Z,61.13
2018-08-06T01:45:14.679Z,60.29
2018-08-06T01:47:43.796Z,60.28
2018-08-06T01:50:13.984Z,60.99
2018-08-06T01:52:43.280Z,61.63
2018-08-06T01:55:12.443Z,61.55
2018-08-06T01:57:41.540Z,62.75
2018-08-06T02:00:13.680Z,62.18
2018-08-06T02:02:43.044Z,62.67
2018-08-06T02:05:12.428Z,61.45
2018-08-06T02:07:41.852Z,60.68
2018-08-06T02:10:13.181Z,60.97
2018-08-06T02:12:42.932Z,60.83
2018-08-06T02:15:12.812Z,60.40
2018-08-06T02:17:42.021Z,60.04
2018-08-06T02:20:12.900Z,59.38
2018-08-06T02:22:42.444Z,60.24
2018-08-06T02:25:11.844Z,60.04
2018-08-06T02:27:43.141Z,60.64
2018-08-06T02:30:13.643Z,61.44
2018-08-06T02:32:42.743Z,61.94
2018-08-06T02:35:13.558Z,61.51
2018-08-06T02:37:43.054Z,61.99
2018-08-06T02:40:15.010Z,62.31
2018-08-06T02:42:44.432Z,63.02
2018-08-06T02:45:13.617Z,63.23
2018-08-06T02:47:42.903Z,64.00
2018-08-06T02:50:12.656Z,64.12
2018-08-06T02:52:42.898Z,63.50
2018-08-06T02:55:16.059Z,63.00
2018-08-06T02:57:45.203Z,63.22
2018-08-06T03:00:16.148Z,64.35
2018-08-06T03:02:46.328Z,63.18
2018-08-06T03:05:17.821Z,62.43
2018-08-06T03:07:47.264Z,61.24
2018-08-06T03:10:16.363Z,61.50
2018-08-06T03:12:46.284Z,61.60
2018-08-06T03:15:15.357Z,61.99
2018-08-06T03:17:44.600Z,61.29
2018-08-06T03:20:14.332Z,61.55
2018-08-06T03:22:43.532Z,61.69
2018-08-06T03:25:14.400Z,62.92
2018-08-06T03:27:44.128Z,62.51
2018-08-06T03:30:15.891Z,62.63
2018-08-06T03:32:46.372Z,61.63
2018-08-06T03:35:15.567Z,63.27
2018-08-06T03:37:44.873Z,63.62
2018-08-06T03:40:14.002Z,63.28
2018-08-06T03:42:43.141Z,64.00
2018-08-06T03:45:12.597Z,63.08
2018-08-06T03:47:42.742Z,64.37
2018-08-06T03:50:12.931Z,64.82
2018-08-06T03:52:42.359Z,64.67
2018-08-06T03:55:12.473Z,65.08
2018-08-06T03:57:42.684Z,65.37
2018-08-06T04:00:14.405Z,65.56
2018-08-06T04:02:45.103Z,65.29
2018-08-06T04:05:15.407Z,64.93
2018-08-06T04:07:44.545Z,63.68
2018-08-06T04:10:15.892Z,62.63
2018-08-06T04:12:45.255Z,61.67
2018-08-06T04:15:14.409Z,62.78
2018-08-06T04:17:44.063Z,63.21
2018-08-06T04:20:13.790Z,61.41
2018-08-06T04:22:43.468Z,61.54
2018-08-06T04:25:12.834Z,60.65
2018-08-06T04:27:41.938Z,61.69
2018-08-06T04:30:15.231Z,62.04
2018-08-06T04:32:45.369Z,62.57
2018-08-06T04:35:14.832Z,62.39
2018-08-06T04:37:44.734Z,60.77
2018-08-06T04:40:14.219Z,60.52
2018-08-06T04:42:43.601Z,60.86
2018-08-06T04:45:12.919Z,60.01
2018-08-06T04:47:43.902Z,60.57
2018-08-06T04:50:14.163Z,61.19
2018-08-06T04:52:44.090Z,61.97
2018-08-06T04:55:14.317Z,61.73
2018-08-06T04:57:43.452Z,62.43
2018-08-06T05:00:14.204Z,61.89
2018-08-06T05:02:44.074Z,60.70
2018-08-06T05:05:13.221Z,60.01
2018-08-06T05:07:42.381Z,60.13
2018-08-06T05:10:11.505Z,59.42
2018-08-06T05:12:40.720Z,59.54
2018-08-06T05:15:09.856Z,61.55
2018-08-06T05:17:39.051Z,61.14
2018-08-06T05:20:08.214Z,59.69
2018-08-06T05:22:37.364Z,58.45
2018-08-06T05:25:06.608Z,58.07
2018-08-06T05:27:35.708Z,59.63
2018-08-06T05:30:08.314Z,60.78
2018-08-06T05:32:38.610Z,59.03
2018-08-06T05:35:08.081Z,59.80
2018-08-06T05:37:38.297Z,58.61
2018-08-06T05:40:08.592Z,58.03
2018-08-06T05:42:37.675Z,59.64
2018-08-06T05:45:07.681Z,59.37
2018-08-06T05:47:37.241Z,60.93
2018-08-06T05:50:08.825Z,60.94
2018-08-06T05:52:38.061Z,60.80
2018-08-06T05:55:07.859Z,61.17
2018-08-06T05:57:37.209Z,58.85
2018-08-06T06:00:10.513Z,58.90
2018-08-06T06:02:39.676Z,58.53
2018-08-06T06:05:09.372Z,59.81
2018-08-06T06:07:38.773Z,61.45
2018-08-06T06:10:09.284Z,60.45
2018-08-06T06:12:38.426Z,59.46
2018-08-06T06:15:11.048Z,60.23
2018-08-06T06:17:40.374Z,60.30
2018-08-06T06:20:10.164Z,59.18
2018-08-06T06:22:39.249Z,58.74
2018-08-06T06:25:10.693Z,59.84
2018-08-06T06:27:39.871Z,58.31
2018-08-06T06:30:11.670Z,58.80
2018-08-06T06:32:40.819Z,60.79
2018-08-06T06:35:10.407Z,59.26
2018-08-06T06:37:39.635Z,58.76
2018-08-06T06:40:08.723Z,58.72
2018-08-06T06:42:37.884Z,60.02
2018-08-06T06:45:08.001Z,59.09
2018-08-06T06:47:37.218Z,59.19
2018-08-06T06:50:07.193Z,60.17
2018-08-06T06:52:36.353Z,61.13
2018-08-06T06:55:07.809Z,61.91
2018-08-06T06:57:36.999Z,62.04
2018-08-06T07:00:07.120Z,59.99
2018-08-06T07:02:36.327Z,59.78
2018-08-06T07:05:06.163Z,62.82
2018-08-06T07:07:35.607Z,61.93
2018-08-06T07:10:06.408Z,63.04
2018-08-06T07:12:35.906Z,63.52
2018-08-06T07:15:06.964Z,63.15
2018-08-06T07:17:36.179Z,63.19
2018-08-06T07:20:06.208Z,64.07
2018-08-06T07:22:35.488Z,63.87
2018-08-06T07:25:05.562Z,63.82
2018-08-06T07:27:34.729Z,64.29
2018-08-06T07:30:04.087Z,64.92
2018-08-06T07:32:33.287Z,64.46
2018-08-06T07:35:02.364Z,64.61
2018-08-06T07:37:31.527Z,63.96
2018-08-06T07:40:00.764Z,63.47
2018-08-06T07:42:29.937Z,63.74
2018-08-06T07:44:59.082Z,64.71
2018-08-06T07:47:28.484Z,63.98
2018-08-06T07:49:57.614Z,64.33
2018-08-06T07:52:26.797Z,62.97
2018-08-06T07:54:56.033Z,63.88
2018-08-06T07:57:25.148Z,63.11
2018-08-06T07:59:54.232Z,63.97
2018-08-06T08:02:23.340Z,62.05
2018-08-06T08:04:52.465Z,62.03
2018-08-06T08:07:21.672Z,61.75
2018-08-06T08:09:50.812Z,61.09
2018-08-06T08:12:19.972Z,62.39
2018-08-06T08:14:49.056Z,61.87
2018-08-06T08:17:18.276Z,61.74
2018-08-06T08:19:47.408Z,61.58
2018-08-06T08:22:16.527Z,61.18
2018-08-06T08:24:45.595Z,61.47
2018-08-06T08:27:14.767Z,61.26
2018-08-06T08:29:44.440Z,61.24
2018-08-06T08:32:13.686Z,62.25
2018-08-06T08:34:42.843Z,61.67
2018-08-06T08:37:12.051Z,61.86
2018-08-06T08:39:41.244Z,62.11
2018-08-06T08:42:10.393Z,62.23
2018-08-06T08:44:39.555Z,62.83
2018-08-06T08:47:08.647Z,61.05
2018-08-06T08:49:37.887Z,61.48
2018-08-06T08:52:07.036Z,62.07
2018-08-06T08:54:36.204Z,60.45
2018-08-06T08:57:05.288Z,61.80
2018-08-06T08:59:34.494Z,62.08
2018-08-06T09:02:03.731Z,60.92
2018-08-06T09:04:32.811Z,60.70
2018-08-06T09:07:01.951Z,59.81
2018-08-06T09:09:31.120Z,59.49
2018-08-06T09:12:00.307Z,59.90
2018-08-06T09:14:29.431Z,60.23
2018-08-06T09:16:58.676Z,59.55
2018-08-06T09:19:27.753Z,59.25
2018-08-06T09:21:56.889Z,57.84
2018-08-06T09:24:25.978Z,59.20
2018-08-06T09:26:55.325Z,57.83
2018-08-06T09:29:24.385Z,57.95
2018-08-06T09:31:53.492Z,58.34
2018-08-06T09:34:22.618Z,59.53
2018-08-06T09:36:51.764Z,58.05
2018-08-06T09:39:20.986Z,57.56
2018-08-06T09:41:50.061Z,57.67
2018-08-06T09:44:19.180Z,57.81
2018-08-06T09:46:48.360Z,57.14
2018-08-06T09:49:17.450Z,56.99
2018-08-06T09:51:46.619Z,56.69
2018-08-06T09:54:15.732Z,55.84
2018-08-06T09:56:44.862Z,54.99
2018-08-06T09:59:14.020Z,55.37
2018-08-06T10:01:48.364Z,56.03
2018-08-06T10:04:17.547Z,55.56
2018-08-06T10:06:46.865Z,55.32
2018-08-06T10:09:15.818Z,54.34
2018-08-06T10:11:44.885Z,53.27
2018-08-06T10:14:13.964Z,54.21
2018-08-06T10:16:43.050Z,55.12
2018-08-06T10:19:12.417Z,54.54
2018-08-06T10:21:41.420Z,52.50
2018-08-06T10:24:10.563Z,52.57
2018-08-06T10:26:39.719Z,50.15
2018-08-06T10:29:09.919Z,48.77
2018-08-06T10:31:39.103Z,45.99
2018-08-06T10:34:08.277Z,47.00
2018-08-06T10:36:37.418Z,46.09
2018-08-06T10:39:09.188Z,47.58
2018-08-06T10:41:38.890Z,48.07
2018-08-06T10:44:07.988Z,47.58
2018-08-06T10:46:37.082Z,46.38
2018-08-06T10:49:06.121Z,47.29
2018-08-06T10:51:35.268Z,45.63
2018-08-06T10:54:04.442Z,45.46
2018-08-06T10:56:34.046Z,46.01
2018-08-06T10:59:03.200Z,45.93
2018-08-06T11:01:32.396Z,44.38
2018-08-06T11:04:01.496Z,44.75
2018-08-06T11:06:30.659Z,46.02
2018-08-06T11:08:59.732Z,46.30
2018-08-06T11:11:28.803Z,43.62
2018-08-06T11:13:58.027Z,44.61
2018-08-06T11:16:27.055Z,44.07
2018-08-06T11:18:56.214Z,45.07
2018-08-06T11:21:25.291Z,43.72
2018-08-06T11:23:54.443Z,44.91
2018-08-06T11:26:23.701Z,44.04
2018-08-06T11:28:59.360Z,45.53
2018-08-06T11:31:28.464Z,43.69
2018-08-06T11:33:57.587Z,44.63
2018-08-06T11:36:26.672Z,43.09
2018-08-06T11:38:55.868Z,41.81
2018-08-06T11:41:24.947Z,43.99
2018-08-06T11:43:54.067Z,43.21
2018-08-06T11:46:23.239Z,42.59
2018-08-06T11:48:52.627Z,41.10
2018-08-06T11:51:21.757Z,42.68
2018-08-06T11:53:50.865Z,41.24
2018-08-06T11:56:20.103Z,42.76
2018-08-06T11:58:49.451Z,42.24
2018-08-06T12:01:18.529Z,42.12
2018-08-06T12:03:47.663Z,40.58
2018-08-06T12:06:16.815Z,42.12
2018-08-06T12:08:46.017Z,40.64
2018-08-06T12:11:15.093Z,41.87
2018-08-06T12:13:44.208Z,37.54
2018-08-06T12:16:13.310Z,37.90
2018-08-06T12:18:42.389Z,37.73
2018-08-06T12:21:11.618Z,37.48
2018-08-06T12:23:40.685Z,37.30
2018-08-06T12:26:09.976Z,42.17
2018-08-06T12:28:39.070Z,38.71
2018-08-06T12:31:08.224Z,33.70
2018-08-06T12:33:37.306Z,35.08
2018-08-06T12:36:06.355Z,35.01
2018-08-06T12:38:46.928Z,34.24
2018-08-06T12:41:16.019Z,34.59
2018-08-06T12:43:45.142Z,33.55
2018-08-06T12:46:14.254Z,33.73
2018-08-06T12:48:43.312Z,34.17
2018-08-06T12:51:12.411Z,33.00
2018-08-06T12:53:41.471Z,31.63
2018-08-06T12:56:10.613Z,30.73
2018-08-06T12:58:39.793Z,30.99
2018-08-06T13:01:08.915Z,31.27
2018-08-06T13:03:38.093Z,30.57
2018-08-06T13:06:07.369Z,29.37
2018-08-06T13:08:36.485Z,31.50
2018-08-06T13:11:05.708Z,30.07
2018-08-06T13:13:34.775Z,31.63
2018-08-06T13:16:03.921Z,29.12
2018-08-06T13:18:33.055Z,29.92
2018-08-06T13:21:02.148Z,29.98
2018-08-06T13:23:31.724Z,30.28
2018-08-06T13:26:00.870Z,29.44
2018-08-06T13:28:29.965Z,28.73
2018-08-06T13:30:59.194Z,30.55
2018-08-06T13:33:28.474Z,28.69
2018-08-06T13:35:57.674Z,26.39
2018-08-06T13:38:27.109Z,27.48
2018-08-06T13:40:56.304Z,27.16
2018-08-06T13:43:25.490Z,26.02
2018-08-06T13:45:54.568Z,27.33
2018-08-06T13:48:23.639Z,28.28
2018-08-06T13:50:52.732Z,28.06
2018-08-06T13:53:21.960Z,26.95
2018-08-06T13:55:50.968Z,27.28
2018-08-06T13:58:20.155Z,27.35
2018-08-06T14:00:49.225Z,24.60
2018-08-06T14:03:18.312Z,27.54
2018-08-06T14:05:47.473Z,26.62
2018-08-06T14:08:16.668Z,25.58
2018-08-06T14:10:45.789Z,25.42
2018-08-06T14:13:14.852Z,26.98
2018-08-06T14:15:43.995Z,26.07
2018-08-06T14:18:13.123Z,25.66
2018-08-06T14:20:42.283Z,25.48
2018-08-06T14:23:11.379Z,25.14
2018-08-06T14:25:40.503Z,25.49
2018-08-06T14:28:09.584Z,26.06
2018-08-06T14:30:39.657Z,25.65
2018-08-06T14:33:08.785Z,25.95
2018-08-06T14:35:37.889Z,26.09
2018-08-06T14:38:06.995Z,25.78
2018-08-06T14:40:36.177Z,22.53
2018-08-06T14:43:05.267Z,24.60
2018-08-06T14:45:34.345Z,23.84
2018-08-06T14:48:03.479Z,24.74
2018-08-06T14:50:32.547Z,24.68
2018-08-06T14:53:01.641Z,22.64
2018-08-06T14:55:30.744Z,24.46
2018-08-06T14:58:00.079Z,23.25
2018-08-06T15:00:29.198Z,22.34
2018-08-06T15:02:58.272Z,23.41
2018-08-06T15:05:28.255Z,23.21
2018-08-06T15:07:57.612Z,22.33
2018-08-06T15:10:26.782Z,21.95
2018-08-06T15:12:56.039Z,23.23
2018-08-06T15:15:25.174Z,22.89
2018-08-06T15:17:54.210Z,22.82
2018-08-06T15:20:23.361Z,23.59
2018-08-06T15:22:52.452Z,24.40
2018-08-06T15:25:23.110Z,22.69
2018-08-06T15:27:52.180Z,23.85
2018-08-06T15:30:21.364Z,24.69
2018-08-06T15:33:54.144Z,22.97
2018-08-06T15:36:23.308Z,25.13
2018-08-06T15:38:52.424Z,23.06
2018-08-06T15:41:21.615Z,23.83
2018-08-06T15:43:50.692Z,21.51
2018-08-06T15:46:19.841Z,21.95
2018-08-06T15:48:48.933Z,24.30
2018-08-06T15:51:18.027Z,20.86
2018-08-06T15:53:47.354Z,22.28
2018-08-06T15:56:16.517Z,22.26
2018-08-06T15:58:45.590Z,22.16
2018-08-06T16:01:14.752Z,23.92
2018-08-06T16:03:43.858Z,22.76
2018-08-06T16:06:12.988Z,22.18
2018-08-06T16:08:42.099Z,23.63
2018-08-06T16:11:11.255Z,21.16
2018-08-06T16:13:40.427Z,23.11
2018-08-06T16:16:09.639Z,22.86
2018-08-06T16:18:38.706Z,23.73
2018-08-06T16:21:08.080Z,21.59
2018-08-06T16:23:37.262Z,22.71
2018-08-06T16:26:06.559Z,23.12
2018-08-06T16:28:35.666Z,22.84
2018-08-06T16:31:05.116Z,22.69
2018-08-06T16:33:34.152Z,23.16
2018-08-06T16:36:03.432Z,21.60
2018-08-06T16:38:32.588Z,23.26
2018-08-06T16:41:01.713Z,22.81
2018-08-06T16:43:30.844Z,23.36
2018-08-06T16:46:00.028Z,23.12
2018-08-06T16:48:29.129Z,23.16
2018-08-06T16:50:58.254Z,22.99
2018-08-06T16:53:27.339Z,23.28
2018-08-06T16:55:56.445Z,23.95
2018-08-06T16:58:25.557Z,25.02
2018-08-06T17:00:54.622Z,25.32
2018-08-06T17:03:23.731Z,24.08
2018-08-06T17:05:53.149Z,24.91
2018-08-06T17:08:22.218Z,25.61
2018-08-06T17:10:51.343Z,25.77
2018-08-06T17:13:20.399Z,25.17
2018-08-06T17:15:49.525Z,25.86
2018-08-06T17:18:18.588Z,26.04
2018-08-06T17:20:47.871Z,27.36
2018-08-06T17:23:16.940Z,25.99
2018-08-06T17:25:46.206Z,26.35
2018-08-06T17:28:15.292Z,27.22
2018-08-06T17:30:44.496Z,28.60
2018-08-06T17:33:13.677Z,28.23
2018-08-06T17:35:42.810Z,28.63
2018-08-06T17:38:11.859Z,28.07
2018-08-06T17:40:40.970Z,27.88
2018-08-06T17:43:10.076Z,28.59
2018-08-06T17:45:39.171Z,29.31
2018-08-06T17:48:08.336Z,29.88
2018-08-06T17:50:37.435Z,29.36
2018-08-06T17:53:06.828Z,33.58
2018-08-06T17:55:35.976Z,34.10
